Time;durP1;ratioP1;P1;durP2;ratioP2;P2;SDS_P1;SDS_P2;PMS_P1;PMS_P2;Temp;Humidity;BMP_temperature;BMP_pressure;BME280_temperature;BME280_humidity;BME280_pressure;Samples;Min_cycle;Max_cycle;Signal;HPM_P1;HPM_P2
2022/06/15 00:00:28;;;;;;;;;;;;;;;17.13;50.32;96966.66;30001;982;1877;-56
2022/06/15 00:01:02;;;;;;;;;;;;;;;17.13;50.18;96976.84;30001;982;1877;-69
2022/06/15 00:01:32;;;;;;;;;;;;;;;17.11;50.51;96966.19;30001;982;1877;-57
2022/06/15 00:02:04;;;;;;;;;;;;;;;17.08;50.27;96964.91;30001;983;1876;-59
2022/06/15 00:02:35;;;;;;;;;;;;;;;17.07;50.20;96968.78;30001;983;1863;-71
2022/06/15 00:03:07;;;;;;;;;;;;;;;17.10;50.19;96972.81;30001;983;1868;-69
2022/06/15 00:03:38;;;;;;;;;;;;;;;17.12;50.37;96970.53;30001;983;1876;-69
2022/06/15 00:04:09;;;;;;;;;;;;;;;17.13;50.09;96972.16;30001;983;1877;-71
2022/06/15 00:04:40;;;;;;;;;;;;;;;17.14;50.51;96971.00;30001;983;1783;-57
2022/06/15 00:05:11;;;;;;;;;;;;;;;17.12;50.20;96976.03;30001;983;1877;-57
2022/06/15 00:05:42;;;;;;;;;;;;;;;17.12;50.35;96973.28;30001;983;1877;-57
2022/06/15 00:06:15;;;;;;;;;;;;;;;17.11;50.28;96968.94;30001;982;1877;-57
2022/06/15 00:06:49;;;;;;;;;;;;;;;17.08;50.30;96975.87;30001;982;1877;-57
2022/06/15 00:07:20;;;;;;;;;;;;;;;17.07;50.46;96970.72;30001;982;1864;-57
2022/06/15 00:07:52;;;;;;;;;;;;;;;17.07;50.81;96968.78;30001;982;1868;-57
2022/06/15 00:08:23;;;;;;;;;;;;;;;17.06;50.37;96961.72;30001;982;1877;-58
2022/06/15 00:08:57;;;;;;;;;;;;;;;17.06;50.73;96964.44;30001;982;1877;-71
2022/06/15 00:09:28;;;;;;;;;;;;;;;17.07;50.54;96968.00;30001;982;1877;-57
2022/06/15 00:10:00;;;;;;;;;;;;;;;17.05;50.36;96959.28;30001;983;1876;-57
2022/06/15 00:10:32;;;;;;;;;;;;;;;17.05;50.37;96962.84;30001;983;1877;-69
2022/06/15 00:11:08;;;;;;;;;;;;;;;17.07;50.30;96962.50;30001;983;1876;-57
2022/06/15 00:11:41;;;;;;;;;;;;;;;17.08;50.23;96962.19;30001;983;1877;-69
2022/06/15 00:12:11;;;;;;;;;;;;;;;17.08;50.51;96958.63;30001;983;1877;-58
2022/06/15 00:12:42;;;;;;;;;;;;;;;17.11;50.15;96960.72;30001;983;1863;-59
2022/06/15 00:13:17;;;;;;;;;;;;;;;17.08;50.21;96955.91;30001;983;1868;-57
2022/06/15 00:13:49;;;;;;;;;;;;;;;17.11;50.40;96951.69;30001;971;1898;-58
2022/06/15 00:14:22;;;;;;;;;;;;;;;17.12;50.20;96953.28;30001;982;1877;-68
2022/06/15 00:14:52;;;;;;;;;;;;;;;17.16;49.77;96959.72;30001;982;1877;-58
2022/06/15 00:15:23;;;;;;;;;;;;;;;17.17;50.00;96953.91;30001;982;1877;-57
2022/06/15 00:15:54;;;;;;;;;;;;;;;17.18;49.74;96947.28;30001;982;1877;-68
2022/06/15 00:16:25;;;;;;;;;;;;;;;17.20;49.66;96955.97;30001;983;1876;-58
2022/06/15 00:16:56;;;;;;;;;;;;;;;17.19;49.70;96954.38;30001;983;1876;-71
2022/06/15 00:17:27;;;;;;;;;;;;;;;17.18;49.63;96958.25;30001;983;1877;-58
2022/06/15 00:18:01;;;;;;;;;;;;;;;17.17;49.70;96953.91;30001;983;1863;-57
2022/06/15 00:18:33;;;;;;;;;;;;;;;17.17;50.08;96955.84;30001;983;1742;-57
2022/06/15 00:19:04;;;;;;;;;;;;;;;17.17;50.08;96956.66;30001;983;1877;-58
2022/06/15 00:19:35;;;;;;;;;;;;;;;17.17;49.92;96955.84;30001;983;1818;-57
2022/06/15 00:20:07;;;;;;;;;;;;;;;17.15;49.78;96953.44;30001;983;1868;-58
2022/06/15 00:20:38;;;;;;;;;;;;;;;17.15;50.01;96955.38;30001;983;1877;-69
2022/06/15 00:21:09;;;;;;;;;;;;;;;17.16;49.75;96955.03;30001;983;1877;-57
2022/06/15 00:21:40;;;;;;;;;;;;;;;17.15;49.84;96953.44;30001;982;1877;-69
2022/06/15 00:22:11;;;;;;;;;;;;;;;17.16;49.89;96957.78;30001;982;1877;-58
2022/06/15 00:22:43;;;;;;;;;;;;;;;17.16;50.02;96954.22;30001;982;1779;-59
2022/06/15 00:23:17;;;;;;;;;;;;;;;17.17;49.79;96948.41;30001;982;1877;-68
2022/06/15 00:23:48;;;;;;;;;;;;;;;17.16;49.85;96949.56;30001;982;1822;-58
2022/06/15 00:24:20;;;;;;;;;;;;;;;17.13;49.93;96952.97;30001;983;1877;-57
2022/06/15 00:24:51;;;;;;;;;;;;;;;17.13;49.93;96955.69;30001;983;1863;-58
2022/06/15 00:25:22;;;;;;;;;;;;;;;17.09;50.13;96961.03;30001;983;1868;-59
2022/06/15 00:25:54;;;;;;;;;;;;;;;17.11;49.74;96957.97;30001;983;1877;-58
2022/06/15 00:26:26;;;;;;;;;;;;;;;17.12;50.03;96961.50;30001;983;1877;-58
2022/06/15 00:26:57;;;;;;;;;;;;;;;17.11;49.81;96949.75;30001;983;1876;-57
2022/06/15 00:27:28;;;;;;;;;;;;;;;17.10;50.02;96950.88;30001;983;1877;-57
2022/06/15 00:27:59;;;;;;;;;;;;;;;17.08;49.89;96955.91;30001;983;1877;-57
2022/06/15 00:28:30;;;;;;;;;;;;;;;17.08;49.90;96958.63;30001;983;1877;-57
2022/06/15 00:29:01;;;;;;;;;;;;;;;17.08;49.99;96964.12;30001;974;1885;-57
2022/06/15 00:29:33;;;;;;;;;;;;;;;17.06;50.16;96961.72;30001;982;1868;-58
2022/06/15 00:30:06;;;;;;;;;;;;;;;17.05;50.27;96962.03;30001;982;1864;-69
2022/06/15 00:30:36;;;;;;;;;;;;;;;17.03;50.23;96962.38;30001;982;1869;-67
2022/06/15 00:31:08;;;;;;;;;;;;;;;17.02;50.16;96959.97;30001;982;1878;-68
2022/06/15 00:31:39;;;;;;;;;;;;;;;17.01;50.35;96963.84;30001;983;1876;-58
2022/06/15 00:32:11;;;;;;;;;;;;;;;17.00;50.20;96962.22;30001;983;1876;-57
2022/06/15 00:32:42;;;;;;;;;;;;;;;16.99;50.20;96966.09;30001;983;1877;-72
2022/06/15 00:33:13;;;;;;;;;;;;;;;16.98;50.40;96970.00;30001;972;1884;-72
2022/06/15 00:33:44;;;;;;;;;;;;;;;16.97;50.48;96971.16;30001;983;1868;-57
2022/06/15 00:34:16;;;;;;;;;;;;;;;16.96;50.89;96966.78;30001;954;1897;-57
2022/06/15 00:34:47;;;;;;;;;;;;;;;16.96;51.16;96967.59;30001;983;1877;-69
2022/06/15 00:35:18;;;;;;;;;;;;;;;16.94;50.92;96974.53;30001;983;1877;-58
2022/06/15 00:35:57;;;;;;;;;;;;;;;16.93;51.05;96968.25;30001;983;1877;-69
2022/06/15 00:36:29;;;;;;;;;;;;;;;16.91;51.07;96969.72;30001;982;1877;-68
2022/06/15 00:37:01;;;;;;;;;;;;;;;16.89;51.22;96961.03;30001;982;1877;-58
2022/06/15 00:37:32;;;;;;;;;;;;;;;16.87;51.18;96963.28;30001;982;1877;-72
2022/06/15 00:38:02;;;;;;;;;;;;;;;16.85;51.40;96960.09;30001;982;1877;-69
2022/06/15 00:38:43;;;;;;;;;;;;;;;16.83;51.32;96965.09;30001;982;1864;-58
2022/06/15 00:39:14;;;;;;;;;;;;;;;16.81;51.77;96967.34;30001;983;1868;-70
2022/06/15 00:39:45;;;;;;;;;;;;;;;16.78;51.79;96968.81;30001;983;1877;-60
2022/06/15 00:40:16;;;;;;;;;;;;;;;16.77;51.74;96958.19;30001;983;1876;-70
2022/06/15 00:40:47;;;;;;;;;;;;;;;16.77;51.69;96960.94;30001;983;1877;-59
2022/06/15 00:41:23;;;;;;;;;;;;;;;16.77;52.00;96969.16;30001;983;1863;-57
2022/06/15 00:41:53;;;;;;;;;;;;;;;16.75;51.83;96962.06;30001;983;1868;-57
2022/06/15 00:42:31;;;;;;;;;;;;;;;16.74;52.20;96965.13;30001;983;1877;-57
2022/06/15 00:43:02;;;;;;;;;;;;;;;16.70;51.77;96954.03;30001;971;1900;-69
2022/06/15 00:43:38;;;;;;;;;;;;;;;16.69;52.06;96962.56;30001;983;1877;-59
2022/06/15 00:44:30;;;;;;;;;;;;;;;16.66;51.91;96964.03;30001;982;1877;-57
2022/06/15 00:45:02;;;;;;;;;;;;;;;16.65;52.01;96958.88;30001;982;1877;-57
2022/06/15 00:45:33;;;;;;;;;;;;;;;16.64;51.74;96963.56;30001;982;1877;-58
2022/06/15 00:46:13;;;;;;;;;;;;;;;16.63;51.98;96964.66;30001;982;1864;-58
2022/06/15 00:46:45;;;;;;;;;;;;;;;16.67;51.55;96962.91;30001;983;1854;-58
2022/06/15 00:47:21;;;;;;;;;;;;;;;16.71;51.55;96955.62;30001;983;1876;-57
2022/06/15 00:47:52;;;;;;;;;;;;;;;16.74;51.10;96960.44;30001;983;1877;-57
2022/06/15 00:48:25;;;;;;;;;;;;;;;16.74;51.35;96948.69;30001;983;1876;-57
2022/06/15 00:49:00;;;;;;;;;;;;;;;16.77;51.06;96952.72;30001;983;1877;-58
2022/06/15 00:49:37;;;;;;;;;;;;;;;16.79;51.23;96956.72;30001;983;1877;-68
2022/06/15 00:50:17;;;;;;;;;;;;;;;16.83;50.75;96951.38;30001;983;1877;-58
2022/06/15 00:50:48;;;;;;;;;;;;;;;16.86;50.83;96945.25;30001;982;1877;-57
2022/06/15 00:51:19;;;;;;;;;;;;;;;16.89;50.74;96947.31;30001;982;1864;-67
2022/06/15 00:51:52;;;;;;;;;;;;;;;16.88;50.82;96942.97;30001;982;1868;-71
2022/06/15 00:52:32;;;;;;;;;;;;;;;16.87;50.69;96946.84;30001;982;1877;-60
2022/06/15 00:53:08;;;;;;;;;;;;;;;16.87;50.94;96949.59;30001;982;1877;-69
2022/06/15 00:53:43;;;;;;;;;;;;;;;16.85;50.68;96946.38;30001;982;1877;-71
2022/06/15 00:54:14;;;;;;;;;;;;;;;16.87;50.80;96941.38;30001;983;1876;-58
2022/06/15 00:54:47;;;;;;;;;;;;;;;16.89;50.69;96941.84;30001;983;1876;-57
2022/06/15 00:55:20;;;;;;;;;;;;;;;16.87;50.88;96939.44;30001;983;1876;-57
2022/06/15 00:55:51;;;;;;;;;;;;;;;16.86;51.05;96939.78;30001;983;1877;-57
2022/06/15 00:56:24;;;;;;;;;;;;;;;16.83;50.76;96945.91;30001;983;1863;-72
2022/06/15 00:56:55;;;;;;;;;;;;;;;16.82;50.87;96944.31;30001;983;1868;-70
2022/06/15 00:57:27;;;;;;;;;;;;;;;16.79;51.09;96942.22;30001;983;1877;-57
2022/06/15 00:58:01;;;;;;;;;;;;;;;16.77;51.18;96941.75;30001;983;1877;-59
2022/06/15 00:58:32;;;;;;;;;;;;;;;16.73;51.39;96945.16;30001;982;1877;-58
2022/06/15 00:59:10;;;;;;;;;;;;;;;16.72;51.24;96943.53;30001;982;1877;-57
2022/06/15 00:59:45;;;;;;;;;;;;;;;16.70;51.70;96945.81;30001;982;1877;-69
2022/06/15 01:00:16;;;;;;;;;;;;;;;16.68;51.39;96939.84;30001;982;1877;-58
2022/06/15 01:00:51;;;;;;;;;;;;;;;16.66;51.63;96942.13;30001;982;1877;-58
2022/06/15 01:01:23;;;;;;;;;;;;;;;16.66;51.86;96938.56;30001;982;1864;-58
2022/06/15 01:01:55;;;;;;;;;;;;;;;16.64;51.96;96936.16;30001;983;1868;-70
2022/06/15 01:02:27;;;;;;;;;;;;;;;16.63;51.50;96936.50;30001;983;1877;-71
2022/06/15 01:02:58;;;;;;;;;;;;;;;16.62;51.84;96935.69;30001;983;1876;-57
2022/06/15 01:03:29;;;;;;;;;;;;;;;16.62;51.68;96941.16;30001;970;1897;-71
2022/06/15 01:04:01;;;;;;;;;;;;;;;16.62;51.92;96935.69;30001;983;1877;-68
2022/06/15 01:04:39;;;;;;;;;;;;;;;16.63;51.54;96931.78;30001;983;1877;-57
2022/06/15 01:05:18;;;;;;;;;;;;;;;16.65;51.53;96939.72;30001;983;1877;-72
2022/06/15 01:06:02;;;;;;;;;;;;;;;16.67;51.53;96932.78;30001;982;1877;-71
2022/06/15 01:07:02;;;;;;;;;;;;;;;16.72;51.33;96929.84;30001;982;1864;-70
2022/06/15 01:07:53;;;;;;;;;;;;;;;16.82;51.02;96925.12;30001;982;1864;-72
2022/06/15 01:08:33;;;;;;;;;;;;;;;16.84;51.17;96925.59;30001;982;1873;-57
2022/06/15 01:09:29;;;;;;;;;;;;;;;16.85;50.97;96927.19;30001;982;1877;-57
2022/06/15 01:10:12;;;;;;;;;;;;;;;16.87;51.19;96913.97;30001;983;1872;-57
2022/06/15 01:10:55;;;;;;;;;;;;;;;16.83;50.99;96913.03;30001;983;1876;-72
2022/06/15 01:11:46;;;;;;;;;;;;;;;16.82;51.22;96919.63;30001;983;1876;-69
2022/06/15 01:12:39;;;;;;;;;;;;;;;16.79;51.37;96918.38;30001;983;1859;-71
2022/06/15 01:13:32;;;;;;;;;;;;;;;16.75;51.28;96918.22;30001;983;1868;-58
2022/06/15 01:14:21;;;;;;;;;;;;;;;16.77;51.34;96915.16;30001;982;1872;-70
2022/06/15 01:15:06;;;;;;;;;;;;;;;16.81;51.11;96912.56;30001;982;1868;-59
2022/06/15 01:15:57;;;;;;;;;;;;;;;16.80;51.21;96913.69;30001;982;1877;-58
2022/06/15 01:16:53;;;;;;;;;;;;;;;16.80;51.41;96913.69;30001;982;1873;-57
2022/06/15 01:18:02;;;;;;;;;;;;;;;16.75;51.42;96910.00;30001;983;1863;-69
2022/06/15 01:18:48;;;;;;;;;;;;;;;16.78;51.58;96914.03;30001;983;1864;-71
2022/06/15 01:19:37;;;;;;;;;;;;;;;16.74;51.27;96905.66;30001;983;1877;-57
2022/06/15 01:20:31;;;;;;;;;;;;;;;16.70;51.33;96912.13;30001;983;1868;-58
2022/06/15 01:21:09;;;;;;;;;;;;;;;16.75;51.19;96912.75;30001;982;1873;-58
2022/06/15 01:21:50;;;;;;;;;;;;;;;16.71;51.32;96906.31;30001;982;1877;-57
2022/06/15 01:22:50;;;;;;;;;;;;;;;16.67;51.33;96910.03;30001;982;1877;-71
2022/06/15 01:23:36;;;;;;;;;;;;;;;16.63;51.45;96904.41;30001;982;1859;-72
2022/06/15 01:24:29;;;;;;;;;;;;;;;16.59;51.86;96906.22;30001;983;1868;-71
2022/06/15 01:25:32;;;;;;;;;;;;;;;16.57;51.81;96899.47;30001;983;1872;-69
2022/06/15 01:26:26;;;;;;;;;;;;;;;16.53;51.96;96904.78;30001;983;1839;-57
2022/06/15 01:27:22;;;;;;;;;;;;;;;16.50;52.07;96910.94;30001;983;1863;-58
2022/06/15 01:28:05;;;;;;;;;;;;;;;16.46;52.09;96904.50;30001;983;1877;-70
2022/06/15 01:28:56;;;;;;;;;;;;;;;16.42;52.52;96915.31;30001;982;1877;-57
2022/06/15 01:29:50;;;;;;;;;;;;;;;16.40;53.61;96911.28;30002;795;1014;-67
2022/06/15 01:30:46;;;;;;;;;;;;;;;16.36;52.92;96913.09;30001;982;1873;-58
2022/06/15 01:31:41;;;;;;;;;;;;;;;16.34;53.00;96912.59;30001;983;1859;-72
2022/06/15 01:32:18;;;;;;;;;;;;;;;16.38;52.42;96908.09;30001;983;1850;-70
2022/06/15 01:32:58;;;;;;;;;;;;;;;16.42;52.26;96909.03;30001;983;1876;-57
2022/06/15 01:33:43;;;;;;;;;;;;;;;16.45;51.91;96908.38;30001;983;1877;-57
2022/06/15 01:34:28;;;;;;;;;;;;;;;16.47;51.99;96906.13;30001;983;1877;-68
2022/06/15 01:35:18;;;;;;;;;;;;;;;16.46;51.96;96904.50;30001;987;1877;-57
2022/06/15 01:36:15;;;;;;;;;;;;;;;16.46;51.88;96900.97;30001;983;1872;-57
2022/06/15 01:36:55;;;;;;;;;;;;;;;16.46;51.82;96904.50;30001;982;1872;-57
2022/06/15 01:37:48;;;;;;;;;;;;;;;16.48;51.92;96902.25;30001;982;1865;-57
2022/06/15 01:38:43;;;;;;;;;;;;;;;16.47;52.07;96897.91;30001;982;1869;-57
2022/06/15 01:39:19;;;;;;;;;;;;;;;16.49;51.90;96901.09;30001;983;1863;-57
2022/06/15 01:40:14;;;;;;;;;;;;;;;16.49;51.84;96898.37;30001;983;1868;-56
2022/06/15 01:40:46;;;;;;;;;;;;;;;16.52;51.39;96892.22;30001;983;1876;-69
2022/06/15 01:41:31;;;;;;;;;;;;;;;16.53;51.38;96893.84;30001;983;1877;-58
2022/06/15 01:42:33;;;;;;;;;;;;;;;16.51;51.43;96901.59;30001;983;1877;-71
2022/06/15 01:43:07;;;;;;;;;;;;;;;16.52;51.61;96889.50;30001;983;1872;-71
2022/06/15 01:43:44;;;;;;;;;;;;;;;16.53;51.21;96901.25;30001;982;1877;-57
2022/06/15 01:44:18;;;;;;;;;;;;;;;16.55;51.30;96891.56;30001;982;1864;-71
2022/06/15 01:45:01;;;;;;;;;;;;;;;16.53;51.24;96899.31;30001;982;1868;-70
2022/06/15 01:45:34;;;;;;;;;;;;;;;16.52;51.68;96903.19;30001;982;1877;-57
2022/06/15 01:46:06;;;;;;;;;;;;;;;16.50;52.04;96899.97;30001;983;1876;-71
2022/06/15 01:46:39;;;;;;;;;;;;;;;16.50;52.20;96899.97;30001;983;1876;-56
2022/06/15 01:47:13;;;;;;;;;;;;;;;16.47;52.07;96900.63;30001;983;1877;-71
2022/06/15 01:47:45;;;;;;;;;;;;;;;16.47;52.26;96911.59;30001;983;1877;-57
2022/06/15 01:48:17;;;;;;;;;;;;;;;16.46;52.66;96911.91;30001;983;1876;-70
2022/06/15 01:48:50;;;;;;;;;;;;;;;16.43;53.43;96910.62;30001;983;1877;-57
2022/06/15 01:49:26;;;;;;;;;;;;;;;16.41;53.06;96915.63;30001;983;1863;-56
2022/06/15 01:50:01;;;;;;;;;;;;;;;16.39;53.84;96920.66;30001;983;1868;-57
2022/06/15 01:50:37;;;;;;;;;;;;;;;16.37;55.27;96928.38;30001;983;1877;-56
2022/06/15 01:51:15;;;;;;;;;;;;;;;16.34;55.49;96926.31;30001;982;1877;-71
2022/06/15 01:51:46;;;;;;;;;;;;;;;16.30;55.42;96934.38;30001;982;1877;-69
2022/06/15 01:52:20;;;;;;;;;;;;;;;16.27;56.77;96934.25;30001;982;1877;-71
2022/06/15 01:52:53;;;;;;;;;;;;;;;16.23;56.21;96933.28;30001;982;1877;-57
2022/06/15 01:53:34;;;;;;;;;;;;;;;16.20;55.46;96931.22;30001;982;1877;-70
2022/06/15 01:54:13;;;;;;;;;;;;;;;16.17;55.39;96937.34;30001;983;1876;-68
2022/06/15 01:54:51;;;;;;;;;;;;;;;16.14;55.12;96925.09;30001;983;1863;-71
2022/06/15 01:55:28;;;;;;;;;;;;;;;16.11;55.23;96927.69;30001;983;1868;-57
2022/06/15 01:56:21;;;;;;;;;;;;;;;16.09;55.93;96933.50;30001;983;1877;-56
2022/06/15 01:56:55;;;;;;;;;;;;;;;16.01;56.18;96937.06;30001;983;1877;-68
2022/06/15 01:57:26;;;;;;;;;;;;;;;15.96;56.66;96935.28;30001;986;1877;-70
2022/06/15 01:58:03;;;;;;;;;;;;;;;15.92;55.81;96926.16;30001;986;1873;-57
2022/06/15 01:58:38;;;;;;;;;;;;;;;15.91;56.37;96921.81;30001;982;1877;-72
2022/06/15 01:59:21;;;;;;;;;;;;;;;15.89;56.39;96924.06;30001;982;1877;-57
2022/06/15 01:59:58;;;;;;;;;;;;;;;15.88;56.21;96927.94;30001;982;1811;-67
2022/06/15 02:00:30;;;;;;;;;;;;;;;15.86;56.28;96926.66;30001;982;1868;-71
2022/06/15 02:01:07;;;;;;;;;;;;;;;15.84;56.21;96926.16;30001;982;1877;-70
2022/06/15 02:01:46;;;;;;;;;;;;;;;15.80;55.85;96931.47;30001;983;1876;-68
2022/06/15 02:02:24;;;;;;;;;;;;;;;15.76;56.33;96927.78;30001;983;1876;-57
2022/06/15 02:03:03;;;;;;;;;;;;;;;15.72;56.21;96930.37;30001;983;1876;-70
2022/06/15 02:03:54;;;;;;;;;;;;;;;15.69;56.27;96930.22;30001;983;1863;-70
2022/06/15 02:04:48;;;;;;;;;;;;;;;15.66;56.69;96925.38;30001;983;1868;-68
2022/06/15 02:05:38;;;;;;;;;;;;;;;15.62;56.24;96925.22;30001;982;1873;-57
2022/06/15 02:06:47;;;;;;;;;;;;;;;15.58;56.42;96926.22;30001;982;1873;-69
2022/06/15 02:07:41;;;;;;;;;;;;;;;15.53;56.33;96932.62;30001;982;1873;-57
2022/06/15 02:08:18;;;;;;;;;;;;;;;15.51;56.32;96923.13;30001;982;1860;-71
2022/06/15 02:09:18;;;;;;;;;;;;;;;15.47;56.35;96919.44;30001;983;1868;-68
2022/06/15 02:10:07;;;;;;;;;;;;;;;15.45;56.72;96919.75;30001;983;1872;-57
2022/06/15 02:10:50;;;;;;;;;;;;;;;15.43;56.42;96927.50;30001;983;1855;-68
2022/06/15 02:11:28;;;;;;;;;;;;;;;15.41;56.83;96925.06;30001;983;1868;-70
2022/06/15 02:12:01;;;;;;;;;;;;;;;15.39;56.74;96927.31;30001;983;1877;-57
2022/06/15 02:12:35;;;;;;;;;;;;;;;15.38;56.92;96930.37;30001;983;1877;-71
2022/06/15 02:13:10;;;;;;;;;;;;;;;15.37;56.83;96929.56;30001;982;1877;-71
2022/06/15 02:13:47;;;;;;;;;;;;;;;15.37;56.81;96931.50;30001;982;1877;-70
2022/06/15 02:14:27;;;;;;;;;;;;;;;15.36;56.69;96932.62;30001;982;1877;-70
2022/06/15 02:14:59;;;;;;;;;;;;;;;15.34;56.83;96924.75;30001;982;1877;-58
2022/06/15 02:15:30;;;;;;;;;;;;;;;15.34;56.68;96935.69;30001;982;1864;-70
2022/06/15 02:16:06;;;;;;;;;;;;;;;15.34;56.89;96929.41;30001;982;1855;-70
2022/06/15 02:16:41;;;;;;;;;;;;;;;15.33;56.55;96925.88;30001;983;1876;-71
2022/06/15 02:17:38;;;;;;;;;;;;;;;15.32;56.65;96924.25;30001;983;1876;-57
2022/06/15 02:18:10;;;;;;;;;;;;;;;15.33;56.69;96928.59;30001;983;1872;-57
2022/06/15 02:18:46;;;;;;;;;;;;;;;15.33;56.23;96923.13;30001;983;1877;-69
2022/06/15 02:19:18;;;;;;;;;;;;;;;15.34;56.23;96924.75;30001;983;1877;-70
2022/06/15 02:19:53;;;;;;;;;;;;;;;15.33;56.32;96927.81;30001;983;1877;-57
2022/06/15 02:20:29;;;;;;;;;;;;;;;15.33;56.94;96928.59;30001;982;1877;-69
2022/06/15 02:21:06;;;;;;;;;;;;;;;15.31;56.50;96928.13;30001;982;1877;-56
2022/06/15 02:21:39;;;;;;;;;;;;;;;15.32;56.66;96937.94;30001;982;1864;-57
2022/06/15 02:22:12;;;;;;;;;;;;;;;15.32;56.43;96931.66;30001;982;1869;-71
2022/06/15 02:22:44;;;;;;;;;;;;;;;15.32;56.39;96932.47;30001;982;1877;-67
2022/06/15 02:23:16;;;;;;;;;;;;;;;15.32;56.66;96923.47;30001;982;1877;-57
2022/06/15 02:23:50;;;;;;;;;;;;;;;15.34;56.34;96932.94;30001;983;1876;-57
2022/06/15 02:24:22;;;;;;;;;;;;;;;15.39;55.89;96929.25;30001;983;1863;-57
2022/06/15 02:24:55;;;;;;;;;;;;;;;15.39;55.82;96913.66;30001;983;1868;-71
2022/06/15 02:25:28;;;;;;;;;;;;;;;15.40;56.09;96920.72;30001;983;1876;-56
2022/06/15 02:26:01;;;;;;;;;;;;;;;15.40;56.21;96923.47;30001;983;1876;-70
2022/06/15 02:26:33;;;;;;;;;;;;;;;15.41;56.16;96935.22;30001;983;1868;-70
2022/06/15 02:27:05;;;;;;;;;;;;;;;15.40;56.19;96923.47;30001;983;1872;-68
2022/06/15 02:27:38;;;;;;;;;;;;;;;15.40;55.80;96922.66;30001;983;1881;-71
2022/06/15 02:28:09;;;;;;;;;;;;;;;15.40;55.98;96923.47;30001;982;1881;-57
2022/06/15 02:28:41;;;;;;;;;;;;;;;15.40;55.93;96928.94;30001;982;1882;-57
2022/06/15 02:29:14;;;;;;;;;;;;;;;15.40;56.12;96926.19;30001;982;1882;-67
2022/06/15 02:29:48;;;;;;;;;;;;;;;15.39;56.03;96927.31;30001;982;1881;-68
2022/06/15 02:30:21;;;;;;;;;;;;;;;15.38;56.03;96925.72;30001;982;1882;-68
2022/06/15 02:30:56;;;;;;;;;;;;;;;15.37;55.84;96928.78;30001;983;1881;-71
2022/06/15 02:31:27;;;;;;;;;;;;;;;15.35;56.06;96929.09;30001;983;1881;-72
2022/06/15 02:31:58;;;;;;;;;;;;;;;15.34;56.02;96927.47;30001;983;1867;-70
2022/06/15 02:32:29;;;;;;;;;;;;;;;15.34;56.44;96932.94;30001;983;1859;-73
2022/06/15 02:33:09;;;;;;;;;;;;;;;15.33;56.49;96928.59;30001;983;1881;-70
2022/06/15 02:33:48;;;;;;;;;;;;;;;15.34;56.24;96930.22;30001;983;1868;-70
2022/06/15 02:34:19;;;;;;;;;;;;;;;15.36;56.20;96930.69;30001;983;1872;-69
2022/06/15 02:34:50;;;;;;;;;;;;;;;15.37;56.42;96926.84;30001;983;1881;-68
2022/06/15 02:35:21;;;;;;;;;;;;;;;15.38;56.02;96925.72;30001;983;1881;-70
2022/06/15 02:35:53;;;;;;;;;;;;;;;15.37;56.41;96921.37;30001;982;1881;-58
2022/06/15 02:36:24;;;;;;;;;;;;;;;15.36;56.37;96925.22;30001;982;1882;-57
2022/06/15 02:36:57;;;;;;;;;;;;;;;15.35;56.42;96920.09;30001;982;1881;-57
2022/06/15 02:37:28;;;;;;;;;;;;;;;15.35;56.37;96920.88;30001;982;1868;-70
2022/06/15 02:37:58;;;;;;;;;;;;;;;15.36;56.08;96922.50;30001;982;1873;-57
2022/06/15 02:38:30;;;;;;;;;;;;;;;15.35;56.00;96911.88;30001;983;1881;-72
2022/06/15 02:39:03;;;;;;;;;;;;;;;15.32;55.96;96921.53;30001;983;1881;-57
2022/06/15 02:39:34;;;;;;;;;;;;;;;15.32;56.08;96921.53;30001;983;1881;-70
2022/06/15 02:40:05;;;;;;;;;;;;;;;15.31;56.25;96919.94;30001;983;1881;-71
2022/06/15 02:40:37;;;;;;;;;;;;;;;15.33;56.53;96917.69;30001;983;1881;-69
2022/06/15 02:41:08;;;;;;;;;;;;;;;15.35;56.27;96904.50;30001;983;1881;-57
2022/06/15 02:41:39;;;;;;;;;;;;;;;15.37;56.14;96907.69;30001;983;1868;-58
2022/06/15 02:42:32;;;;;;;;;;;;;;;15.39;56.29;96910.12;30001;983;1859;-70
2022/06/15 02:43:07;;;;;;;;;;;;;;;15.38;56.05;96909.31;30001;982;1881;-67
2022/06/15 02:43:39;;;;;;;;;;;;;;;15.37;56.37;96910.44;30001;982;1881;-69
2022/06/15 02:44:13;;;;;;;;;;;;;;;15.36;56.28;96914.31;30001;982;1882;-71
2022/06/15 02:44:44;;;;;;;;;;;;;;;15.35;56.41;96914.63;30001;982;1882;-69
2022/06/15 02:45:19;;;;;;;;;;;;;;;15.35;56.48;96914.63;30001;970;1901;-57
2022/06/15 02:45:52;;;;;;;;;;;;;;;15.32;56.57;96910.59;30001;983;1881;-70
2022/06/15 02:46:24;;;;;;;;;;;;;;;15.33;56.85;96922.34;30001;983;1881;-69
2022/06/15 02:46:59;;;;;;;;;;;;;;;15.31;56.60;96914.47;30001;983;1868;-70
2022/06/15 02:47:32;;;;;;;;;;;;;;;15.31;56.58;96919.94;30001;983;1872;-72
2022/06/15 02:48:04;;;;;;;;;;;;;;;15.30;56.64;96918.31;30001;983;1881;-57
2022/06/15 02:48:36;;;;;;;;;;;;;;;15.31;56.81;96914.47;30001;983;1881;-69
2022/06/15 02:49:06;;;;;;;;;;;;;;;15.31;56.87;96919.94;30001;983;1881;-57
2022/06/15 02:49:39;;;;;;;;;;;;;;;15.32;56.97;96910.59;30001;983;1881;-68
2022/06/15 02:50:12;;;;;;;;;;;;;;;15.33;56.88;96909.47;30001;983;1881;-58
2022/06/15 02:51:07;;;;;;;;;;;;;;;15.34;56.54;96919.28;30001;982;1881;-57
2022/06/15 02:51:59;;;;;;;;;;;;;;;15.38;56.50;96909.31;30001;982;1881;-72
2022/06/15 02:52:33;;;;;;;;;;;;;;;15.36;56.43;96905.28;30001;982;1868;-58
2022/06/15 02:53:07;;;;;;;;;;;;;;;15.36;56.68;96917.03;30001;982;1859;-57
2022/06/15 02:53:39;;;;;;;;;;;;;;;15.34;56.89;96908.34;30001;983;1881;-70
2022/06/15 02:54:23;;;;;;;;;;;;;;;15.31;56.68;96914.47;30001;983;1881;-69
2022/06/15 02:54:55;;;;;;;;;;;;;;;15.32;57.03;96905.13;30001;983;1881;-68
2022/06/15 02:55:26;;;;;;;;;;;;;;;15.32;57.03;96905.13;30001;983;1881;-57
2022/06/15 02:55:58;;;;;;;;;;;;;;;15.31;56.97;96914.47;30001;983;1881;-57
2022/06/15 02:56:34;;;;;;;;;;;;;;;15.30;57.03;96906.56;30001;983;1881;-72
2022/06/15 02:57:05;;;;;;;;;;;;;;;15.29;57.09;96915.91;30001;983;1881;-57
2022/06/15 02:57:50;;;;;;;;;;;;;;;15.29;56.96;96922.19;30001;983;1881;-57
2022/06/15 02:58:27;;;;;;;;;;;;;;;15.27;56.91;96918.16;30001;982;1868;-57
2022/06/15 02:58:58;;;;;;;;;;;;;;;15.25;57.00;96914.94;30001;982;1872;-57
2022/06/15 02:59:29;;;;;;;;;;;;;;;15.24;57.04;96910.62;30001;982;1881;-58
2022/06/15 03:00:00;;;;;;;;;;;;;;;15.24;57.41;96918.81;30001;982;1868;-71
2022/06/15 03:00:32;;;;;;;;;;;;;;;15.24;57.15;96919.63;30001;982;1873;-70
2022/06/15 03:01:04;;;;;;;;;;;;;;;15.24;57.55;96919.63;30001;983;1881;-58
2022/06/15 03:01:35;;;;;;;;;;;;;;;15.23;57.41;96918.03;30001;983;1881;-57
2022/06/15 03:02:06;;;;;;;;;;;;;;;15.23;57.35;96918.03;30001;983;1881;-69
2022/06/15 03:02:38;;;;;;;;;;;;;;;15.23;57.57;96918.03;30001;983;1881;-68
2022/06/15 03:03:12;;;;;;;;;;;;;;;15.21;57.50;96923.00;30001;983;1881;-57
2022/06/15 03:03:43;;;;;;;;;;;;;;;15.21;57.59;96916.72;30001;983;1868;-57
2022/06/15 03:04:14;;;;;;;;;;;;;;;15.21;57.67;96927.66;30001;983;1872;-57
2022/06/15 03:04:46;;;;;;;;;;;;;;;15.20;57.66;96917.84;30001;983;1881;-57
2022/06/15 03:05:17;;;;;;;;;;;;;;;15.20;57.80;96924.13;30001;982;1881;-57
2022/06/15 03:05:52;;;;;;;;;;;;;;;15.19;57.48;96922.53;30001;982;1881;-70
2022/06/15 03:06:27;;;;;;;;;;;;;;;15.19;57.60;96918.97;30001;982;1882;-70
2022/06/15 03:06:58;;;;;;;;;;;;;;;15.18;57.72;96920.09;30001;982;1881;-68
2022/06/15 03:07:29;;;;;;;;;;;;;;;15.16;57.70;96925.91;30001;982;1881;-68
2022/06/15 03:08:00;;;;;;;;;;;;;;;15.14;57.91;96925.41;30001;982;1882;-70
2022/06/15 03:08:30;;;;;;;;;;;;;;;15.14;57.73;96922.69;30001;983;1881;-67
2022/06/15 03:09:01;;;;;;;;;;;;;;;15.13;57.54;96921.06;30001;983;1868;-68
2022/06/15 03:09:35;;;;;;;;;;;;;;;15.12;57.79;96919.47;30001;983;1872;-70
2022/06/15 03:10:07;;;;;;;;;;;;;;;15.12;57.93;96921.37;30001;983;1881;-71
2022/06/15 03:10:37;;;;;;;;;;;;;;;15.12;57.74;96915.91;30001;983;1881;-70
2022/06/15 03:11:09;;;;;;;;;;;;;;;15.13;57.82;96914.78;30001;961;1808;-71
2022/06/15 03:11:41;;;;;;;;;;;;;;;15.15;57.43;96921.56;30001;983;1881;-71
2022/06/15 03:12:11;;;;;;;;;;;;;;;15.16;57.27;96912.22;30001;983;1881;-69
2022/06/15 03:12:42;;;;;;;;;;;;;;;15.20;57.36;96918.66;30001;982;1868;-69
2022/06/15 03:13:13;;;;;;;;;;;;;;;15.21;57.23;96914.81;30001;982;1872;-66
2022/06/15 03:13:44;;;;;;;;;;;;;;;15.23;56.93;96912.56;30001;982;1881;-69
2022/06/15 03:14:15;;;;;;;;;;;;;;;15.26;57.04;96911.06;30001;982;1868;-67